Time;durP1;ratioP1;P1;durP2;ratioP2;P2;SDS_P1;SDS_P2;PMS_P1;PMS_P2;Temp;Humidity;BMP_temperature;BMP_pressure;BME280_temperature;BME280_humidity;BME280_pressure;Samples;Min_cycle;Max_cycle;Signal;HPM_P1;HPM_P2
2022/05/25 00:00:25;;;;;;;2.03;0.90;;;14.80;99.90;;;;;;5058306;28;20220;-65
2022/05/25 00:02:52;;;;;;;1.52;0.80;;;14.80;99.90;;;;;;5058515;28;20224;-65
2022/05/25 00:05:19;;;;;;;1.10;0.65;;;14.80;99.90;;;;;;5058012;28;20185;-65
2022/05/25 00:07:45;;;;;;;1.27;1.00;;;14.70;99.90;;;;;;5058287;28;20181;-65
2022/05/25 00:10:11;;;;;;;0.77;0.57;;;14.70;99.90;;;;;;5058400;28;20231;-65
2022/05/25 00:12:38;;;;;;;1.83;0.68;;;14.60;99.90;;;;;;5058096;28;20182;-64
2022/05/25 00:15:06;;;;;;;1.67;0.95;;;14.60;99.90;;;;;;5058529;28;20575;-65
2022/05/25 00:17:32;;;;;;;1.13;0.70;;;14.50;99.90;;;;;;5057859;28;20217;-65
2022/05/25 00:20:00;;;;;;;1.00;0.70;;;14.50;99.90;;;;;;5058151;28;20187;-65
2022/05/25 00:22:29;;;;;;;1.77;0.75;;;14.40;99.90;;;;;;5057817;28;20262;-64
2022/05/25 00:24:58;;;;;;;1.05;0.80;;;14.40;99.90;;;;;;5058358;28;20197;-64
2022/05/25 00:27:24;;;;;;;1.00;0.50;;;14.40;99.90;;;;;;5057578;28;20196;-65
2022/05/25 00:29:50;;;;;;;0.80;0.80;;;14.40;99.90;;;;;;5058091;28;20696;-65
2022/05/25 00:32:15;;;;;;;0.80;0.80;;;14.40;99.90;;;;;;5057552;28;20183;-65
2022/05/25 00:34:42;;;;;;;1.50;0.80;;;14.40;99.90;;;;;;5058005;28;20177;-66
2022/05/25 00:37:08;;;;;;;0.93;0.93;;;14.40;99.90;;;;;;5055235;28;20208;-66
2022/05/25 00:39:34;;;;;;;1.13;0.90;;;14.40;99.90;;;;;;5054606;28;20185;-66
2022/05/25 00:42:03;;;;;;;1.20;0.90;;;14.40;99.90;;;;;;5054587;28;20663;-65
2022/05/25 00:44:28;;;;;;;1.55;1.15;;;14.40;99.90;;;;;;5054619;28;20509;-65
2022/05/25 00:46:54;;;;;;;0.90;0.90;;;14.40;99.90;;;;;;5054214;28;20178;-65
2022/05/25 00:49:28;;;;;;;2.35;0.70;;;14.40;99.90;;;;;;5054105;28;20358;-65
2022/05/25 00:52:04;;;;;;;1.50;0.70;;;14.30;99.90;;;;;;5053804;28;20222;-66
2022/05/25 00:54:33;;;;;;;3.20;0.80;;;14.30;99.90;;;;;;5054175;28;20177;-65
2022/05/25 00:57:05;;;;;;;0.65;0.65;;;14.30;99.90;;;;;;5052709;28;20212;-64
2022/05/25 00:59:33;;;;;;;0.82;0.82;;;14.20;99.90;;;;;;5053777;28;20180;-65
2022/05/25 01:01:59;;;;;;;2.35;1.00;;;14.20;99.90;;;;;;5053782;28;20189;-65
2022/05/25 01:04:27;;;;;;;2.28;1.00;;;14.10;99.90;;;;;;5053350;28;20181;-66
2022/05/25 01:07:17;;;;;;;1.00;1.00;;;14.20;99.90;;;;;;5053925;28;20174;-65
2022/05/25 01:10:01;;;;;;;0.93;0.60;;;14.20;99.90;;;;;;5054032;28;20264;-65
2022/05/25 01:12:40;;;;;;;1.00;1.00;;;14.10;99.90;;;;;;5053480;28;20182;-65
2022/05/25 01:15:26;;;;;;;0.75;0.75;;;14.10;99.90;;;;;;5054099;28;20540;-65
2022/05/25 01:18:03;;;;;;;2.58;0.95;;;14.20;99.90;;;;;;5053836;28;20218;-65
2022/05/25 01:21:02;;;;;;;1.17;0.77;;;14.20;99.90;;;;;;5053620;28;20250;-65
2022/05/25 01:24:09;;;;;;;1.45;0.90;;;14.20;99.90;;;;;;5047940;28;20209;-64
2022/05/25 01:27:11;;;;;;;1.13;0.80;;;14.20;99.90;;;;;;5033566;28;20186;-65
2022/05/25 01:29:59;;;;;;;1.00;0.80;;;14.20;99.90;;;;;;5053641;28;20184;-65
2022/05/25 01:32:46;;;;;;;7.63;0.95;;;14.20;99.90;;;;;;5053319;28;20186;-65
2022/05/25 01:35:33;;;;;;;1.08;0.77;;;14.20;99.90;;;;;;5053210;28;20177;-66
2022/05/25 01:38:25;;;;;;;1.02;0.90;;;14.20;99.90;;;;;;5053465;28;20655;-65
2022/05/25 01:41:14;;;;;;;0.70;0.70;;;14.20;99.90;;;;;;5053195;28;20546;-65
2022/05/25 01:43:52;;;;;;;0.82;0.70;;;14.20;99.90;;;;;;5051177;28;20504;-65
2022/05/25 01:46:20;;;;;;;0.52;0.52;;;14.10;99.90;;;;;;5052943;28;20177;-65
2022/05/25 01:48:47;;;;;;;2.38;0.73;;;14.10;99.90;;;;;;5051601;28;20182;-65
2022/05/25 01:51:22;;;;;;;0.90;0.90;;;14.10;99.90;;;;;;5052938;28;20181;-65
2022/05/25 01:53:54;;;;;;;1.00;0.70;;;14.10;99.90;;;;;;5047985;28;20640;-65
2022/05/25 01:56:23;;;;;;;1.70;1.17;;;14.10;99.90;;;;;;5053174;28;20176;-65
2022/05/25 01:58:54;;;;;;;1.38;0.88;;;14.10;99.90;;;;;;5052816;28;20181;-65
2022/05/25 02:01:21;;;;;;;1.92;1.00;;;14.10;99.90;;;;;;5053046;28;20166;-65
2022/05/25 02:06:54;;;;;;;1.42;0.95;;;14.10;99.90;;;;;;5053132;28;20223;-65
2022/05/25 02:09:25;;;;;;;1.60;0.93;;;14.00;99.90;;;;;;5044010;28;20212;-65
2022/05/25 02:12:07;;;;;;;1.00;0.90;;;14.10;99.90;;;;;;5051854;28;20212;-65
2022/05/25 02:14:56;;;;;;;0.75;0.73;;;14.00;99.90;;;;;;5052179;28;20607;-65
2022/05/25 02:17:31;;;;;;;2.20;0.90;;;14.00;99.90;;;;;;5052076;28;20578;-65
2022/05/25 02:20:02;;;;;;;2.15;0.95;;;14.00;99.90;;;;;;5051743;28;20183;-65
2022/05/25 02:22:41;;;;;;;1.00;0.85;;;14.00;99.90;;;;;;5049541;28;20262;-65
2022/05/25 02:25:30;;;;;;;1.02;0.85;;;13.90;99.90;;;;;;5052325;28;20192;-65
2022/05/25 02:28:03;;;;;;;1.00;1.00;;;13.90;99.90;;;;;;5052099;28;20182;-65
2022/05/25 02:30:33;;;;;;;0.70;0.70;;;13.90;99.90;;;;;;5052520;28;20586;-65
2022/05/25 02:33:13;;;;;;;0.95;0.70;;;13.90;99.90;;;;;;5052109;28;20554;-64
2022/05/25 02:35:42;;;;;;;1.00;1.00;;;13.90;99.90;;;;;;5052365;28;20181;-65
2022/05/25 02:38:09;;;;;;;1.85;0.90;;;13.90;99.90;;;;;;5051944;28;20543;-64
2022/05/25 02:40:37;;;;;;;0.88;0.73;;;13.80;99.90;;;;;;5052235;28;20204;-64
2022/05/25 02:43:03;;;;;;;2.28;0.80;;;13.90;99.90;;;;;;5051650;28;20691;-65
2022/05/25 02:45:29;;;;;;;1.17;0.70;;;13.80;99.90;;;;;;5052287;28;20204;-65
2022/05/25 02:47:55;;;;;;;0.88;0.82;;;13.80;99.90;;;;;;5051499;28;20656;-65
2022/05/25 02:50:21;;;;;;;0.75;0.75;;;13.80;99.90;;;;;;5051309;28;20185;-65
2022/05/25 02:52:47;;;;;;;3.65;1.00;;;13.80;99.90;;;;;;5051932;28;20185;-65
2022/05/25 02:55:13;;;;;;;1.15;1.00;;;13.80;99.90;;;;;;5051886;28;20586;-65
2022/05/25 02:57:39;;;;;;;0.80;0.80;;;13.70;99.90;;;;;;5051984;28;20205;-65
2022/05/25 03:00:05;;;;;;;2.40;0.90;;;13.70;99.90;;;;;;5052073;28;20534;-64
2022/05/25 03:02:31;;;;;;;1.65;0.98;;;13.70;99.90;;;;;;5051847;28;20216;-65
2022/05/25 03:04:56;;;;;;;3.28;1.02;;;13.70;99.90;;;;;;5051687;28;20177;-64
2022/05/25 03:07:22;;;;;;;1.10;0.70;;;13.70;99.90;;;;;;5051827;28;20651;-65
2022/05/25 03:09:47;;;;;;;1.50;0.88;;;13.70;99.90;;;;;;5051851;28;20189;-64
2022/05/25 03:12:13;;;;;;;1.55;0.65;;;13.70;99.90;;;;;;5051414;28;20185;-64
2022/05/25 03:14:39;;;;;;;0.80;0.80;;;13.80;99.90;;;;;;5051539;28;20235;-65
2022/05/25 03:17:12;;;;;;;1.17;0.85;;;13.80;99.90;;;;;;5050973;28;20244;-65
2022/05/25 03:19:39;;;;;;;1.35;0.90;;;13.80;99.90;;;;;;5051907;28;20182;-65
2022/05/25 03:22:04;;;;;;;0.70;0.70;;;13.80;99.90;;;;;;5051033;28;20216;-65
2022/05/25 03:24:30;;;;;;;1.98;0.90;;;13.80;99.90;;;;;;5051227;28;20533;-65
2022/05/25 03:26:58;;;;;;;0.82;0.82;;;13.80;99.90;;;;;;5051357;28;20682;-64
2022/05/25 03:29:23;;;;;;;1.25;0.85;;;13.70;99.90;;;;;;5050486;28;20177;-65
2022/05/25 03:31:49;;;;;;;1.08;1.00;;;13.80;99.90;;;;;;5051323;28;20180;-64
2022/05/25 03:34:14;;;;;;;3.13;0.90;;;13.80;99.90;;;;;;5051309;28;20173;-64
2022/05/25 03:36:40;;;;;;;1.65;0.77;;;13.70;99.90;;;;;;5051825;28;20169;-64
2022/05/25 03:39:05;;;;;;;0.88;0.88;;;13.70;99.90;;;;;;5051144;28;20682;-64
2022/05/25 03:41:31;;;;;;;2.83;0.93;;;13.70;99.90;;;;;;5051271;28;20193;-62
2022/05/25 03:43:57;;;;;;;0.77;0.73;;;13.70;99.90;;;;;;5049990;28;20237;-63
2022/05/25 03:46:22;;;;;;;0.95;0.60;;;13.70;99.90;;;;;;5051196;28;20280;-63
2022/05/25 03:48:48;;;;;;;0.95;0.75;;;13.60;99.90;;;;;;5051498;28;20185;-64
2022/05/25 03:51:13;;;;;;;2.53;0.90;;;13.60;99.90;;;;;;5051204;28;20272;-64
2022/05/25 03:53:39;;;;;;;1.85;1.00;;;13.50;99.90;;;;;;5051367;28;20177;-63
2022/05/25 03:56:05;;;;;;;1.17;0.85;;;13.50;99.90;;;;;;5051180;28;20177;-66
2022/05/25 03:58:31;;;;;;;1.20;1.10;;;13.50;99.90;;;;;;5051086;28;20185;-63
2022/05/25 04:00:56;;;;;;;1.42;0.77;;;13.50;99.90;;;;;;5051476;28;20192;-63
2022/05/25 04:03:23;;;;;;;0.80;0.80;;;13.50;99.90;;;;;;5050167;28;20699;-64
2022/05/25 04:05:48;;;;;;;3.30;0.95;;;13.50;99.90;;;;;;5051136;28;20209;-66
2022/05/25 04:08:14;;;;;;;2.30;0.73;;;13.50;99.90;;;;;;5050114;28;20632;-65
2022/05/25 04:10:40;;;;;;;3.72;0.95;;;13.50;99.90;;;;;;5050928;28;20182;-71
2022/05/25 04:13:06;;;;;;;1.08;0.73;;;13.50;99.90;;;;;;5054708;28;20177;-64
2022/05/25 04:15:33;;;;;;;1.80;1.00;;;13.60;99.90;;;;;;5060780;28;20200;-65
2022/05/25 04:17:58;;;;;;;1.30;0.90;;;13.60;99.90;;;;;;5054080;28;20221;-63
2022/05/25 04:20:25;;;;;;;1.45;0.85;;;13.60;99.90;;;;;;5054350;28;20239;-66
2022/05/25 04:22:51;;;;;;;1.42;1.00;;;13.70;99.90;;;;;;5050999;28;20217;-67
2022/05/25 04:25:19;;;;;;;1.02;0.95;;;13.70;99.90;;;;;;5054248;28;20185;-63
2022/05/25 04:27:46;;;;;;;1.27;0.90;;;13.70;99.90;;;;;;5054137;28;20592;-61
2022/05/25 04:30:14;;;;;;;1.23;0.88;;;13.70;99.90;;;;;;5054567;28;20239;-61
2022/05/25 04:32:40;;;;;;;1.63;0.80;;;13.70;99.90;;;;;;5054937;28;20169;-64
2022/05/25 04:35:08;;;;;;;0.90;0.90;;;13.70;99.90;;;;;;5053349;28;20178;-64
2022/05/25 04:37:48;;;;;;;2.08;0.95;;;13.70;99.90;;;;;;5046135;28;20181;-67
2022/05/25 04:40:17;;;;;;;1.30;1.10;;;13.70;99.90;;;;;;5053163;28;20181;-65
2022/05/25 04:42:43;;;;;;;1.92;0.77;;;13.80;99.90;;;;;;5053050;28;20217;-66
2022/05/25 04:45:09;;;;;;;1.98;1.13;;;13.80;99.90;;;;;;5063377;28;20513;-66
2022/05/25 04:47:37;;;;;;;1.45;0.80;;;13.80;99.90;;;;;;5042740;28;20182;-66
2022/05/25 04:50:06;;;;;;;1.33;0.90;;;13.80;99.90;;;;;;5054230;28;20640;-66
2022/05/25 04:52:36;;;;;;;1.33;0.75;;;13.90;99.90;;;;;;5054194;28;20177;-66
2022/05/25 04:55:03;;;;;;;1.35;0.98;;;13.90;99.90;;;;;;5053798;28;20181;-66
2022/05/25 04:57:28;;;;;;;1.00;0.88;;;14.10;99.90;;;;;;5054308;28;20174;-66
2022/05/25 04:59:59;;;;;;;0.90;0.80;;;14.30;99.90;;;;;;5053191;28;20184;-66
2022/05/25 05:02:26;;;;;;;1.85;0.80;;;14.50;99.90;;;;;;5053723;28;20272;-66
2022/05/25 05:04:51;;;;;;;2.47;0.98;;;14.60;99.90;;;;;;5054178;28;20212;-66
2022/05/25 05:07:18;;;;;;;2.75;0.68;;;14.60;99.90;;;;;;5054024;28;20828;-66
2022/05/25 05:09:45;;;;;;;0.88;0.88;;;14.50;99.90;;;;;;5054039;28;20178;-66
2022/05/25 05:12:12;;;;;;;1.90;1.13;;;14.50;99.90;;;;;;5053925;28;20181;-66
2022/05/25 05:14:38;;;;;;;0.80;0.80;;;14.50;99.90;;;;;;5054117;28;20187;-66
2022/05/25 05:17:05;;;;;;;1.10;1.00;;;14.70;99.90;;;;;;5053576;28;20308;-66
2022/05/25 05:19:31;;;;;;;1.50;1.00;;;14.90;99.90;;;;;;5053837;28;20628;-66
2022/05/25 05:21:57;;;;;;;2.08;1.20;;;15.50;99.90;;;;;;5042184;28;20206;-69
2022/05/25 05:24:23;;;;;;;3.40;1.00;;;16.30;99.90;;;;;;5033760;28;20218;-66
2022/05/25 05:26:49;;;;;;;1.67;1.10;;;17.10;99.90;;;;;;5044502;28;20179;-66
2022/05/25 05:29:15;;;;;;;2.90;1.05;;;17.90;99.90;;;;;;5053625;28;20273;-65
2022/05/25 05:31:40;;;;;;;1.60;0.90;;;18.60;99.90;;;;;;5053344;28;20178;-65
2022/05/25 05:34:06;;;;;;;1.05;0.70;;;19.10;98.10;;;;;;5053557;28;20188;-66
2022/05/25 05:36:38;;;;;;;1.10;0.70;;;19.60;97.20;;;;;;5053621;28;20197;-66
2022/05/25 05:39:06;;;;;;;0.73;0.70;;;20.10;96.30;;;;;;5053608;28;20188;-65
2022/05/25 05:41:42;;;;;;;0.63;0.55;;;20.40;94.60;;;;;;5053352;28;20219;-65
2022/05/25 05:44:12;;;;;;;1.13;0.57;;;20.60;93.00;;;;;;5053259;28;20232;-65
2022/05/25 05:46:41;;;;;;;0.57;0.52;;;20.50;92.70;;;;;;5053110;28;20691;-66
2022/05/25 05:49:08;;;;;;;1.33;0.68;;;21.00;92.60;;;;;;5053211;28;20325;-66
2022/05/25 05:51:34;;;;;;;2.03;0.77;;;21.60;91.60;;;;;;5053208;28;20581;-66
2022/05/25 05:54:02;;;;;;;2.50;0.60;;;22.10;90.40;;;;;;5053244;28;20174;-66
2022/05/25 05:56:28;;;;;;;0.77;0.70;;;22.60;88.20;;;;;;5053287;28;20221;-66
2022/05/25 05:58:53;;;;;;;2.92;0.63;;;23.20;84.50;;;;;;5053035;28;20197;-66
2022/05/25 06:01:19;;;;;;;1.20;0.60;;;23.50;79.90;;;;;;5052936;28;20189;-66
2022/05/25 06:03:44;;;;;;;1.35;0.75;;;23.80;77.70;;;;;;5052975;28;20213;-66
2022/05/25 06:06:10;;;;;;;0.90;0.50;;;24.10;76.00;;;;;;5053009;28;20743;-66
2022/05/25 06:08:36;;;;;;;1.55;0.70;;;24.20;73.10;;;;;;5052930;28;20188;-65
2022/05/25 06:11:01;;;;;;;0.50;0.50;;;24.60;71.50;;;;;;5052815;28;20503;-65
2022/05/25 06:13:27;;;;;;;1.70;0.82;;;25.10;70.40;;;;;;5052833;28;20196;-66
2022/05/25 06:21:24;;;;;;;0.70;0.70;;;25.40;67.90;;;;;;5046430;28;20577;-65
2022/05/25 06:23:50;;;;;;;0.95;0.50;;;25.70;64.90;;;;;;5032698;28;20221;-65
2022/05/25 06:26:17;;;;;;;0.82;0.50;;;25.90;63.80;;;;;;5033286;28;20273;-65
2022/05/25 06:28:43;;;;;;;0.63;0.55;;;26.00;63.30;;;;;;5052584;28;20173;-65
2022/05/25 06:31:09;;;;;;;0.57;0.57;;;25.90;61.50;;;;;;5052389;28;20672;-65
2022/05/25 06:33:35;;;;;;;0.73;0.70;;;25.50;61.80;;;;;;5052188;28;20189;-65
2022/05/25 06:36:11;;;;;;;0.45;0.43;;;25.50;63.30;;;;;;5051986;28;20173;-64
2022/05/25 06:38:37;;;;;;;1.13;0.70;;;24.80;61.80;;;;;;5052470;28;20177;-65
2022/05/25 06:41:02;;;;;;;1.27;0.75;;;24.90;64.40;;;;;;5052238;28;20174;-64
2022/05/25 06:43:28;;;;;;;4.53;0.85;;;25.60;62.30;;;;;;5052080;28;20221;-65
2022/05/25 06:45:53;;;;;;;0.50;0.50;;;26.50;60.20;;;;;;5052085;28;20596;-64
2022/05/25 06:48:19;;;;;;;1.25;0.70;;;27.20;58.30;;;;;;5052070;28;20182;-65
2022/05/25 06:50:46;;;;;;;3.13;0.40;;;27.80;57.20;;;;;;5052205;28;20173;-64
2022/05/25 06:53:12;;;;;;;0.80;0.80;;;27.80;56.60;;;;;;5052026;28;20687;-64
2022/05/25 06:55:37;;;;;;;0.47;0.47;;;27.60;56.80;;;;;;5052191;28;20207;-64
2022/05/25 06:58:03;;;;;;;0.80;0.60;;;27.80;56.20;;;;;;5051987;28;20207;-64
2022/05/25 07:00:29;;;;;;;1.70;0.57;;;27.50;55.30;;;;;;5051987;28;20558;-64
2022/05/25 07:02:54;;;;;;;0.77;0.70;;;27.00;55.80;;;;;;5051758;28;20206;-64
2022/05/25 07:05:20;;;;;;;2.17;1.13;;;26.80;57.00;;;;;;5051882;28;20197;-64
2022/05/25 07:07:45;;;;;;;0.70;0.68;;;27.40;56.60;;;;;;5051977;28;20181;-64
2022/05/25 07:10:11;;;;;;;0.70;0.70;;;27.90;55.00;;;;;;5051991;28;20276;-64
2022/05/25 07:12:37;;;;;;;1.38;0.60;;;28.40;55.00;;;;;;5051878;28;20264;-64
2022/05/25 07:15:03;;;;;;;0.70;0.70;;;28.60;54.20;;;;;;5051790;28;20182;-64
2022/05/25 07:17:30;;;;;;;1.52;0.77;;;28.30;54.10;;;;;;5051762;28;20233;-64
2022/05/25 07:19:56;;;;;;;2.28;0.70;;;28.40;54.10;;;;;;5051592;28;20184;-64
2022/05/25 07:22:21;;;;;;;2.25;0.60;;;28.20;54.00;;;;;;5037127;28;20181;-64
2022/05/25 07:24:47;;;;;;;0.60;0.60;;;28.40;54.10;;;;;;5031869;28;20660;-64
2022/05/25 07:27:13;;;;;;;0.50;0.50;;;28.00;53.90;;;;;;5040159;28;20203;-64
2022/05/25 07:29:38;;;;;;;1.00;0.73;;;27.80;53.70;;;;;;5051864;28;20185;-65
2022/05/25 07:32:09;;;;;;;0.98;0.73;;;28.00;54.60;;;;;;5051677;28;20180;-64
2022/05/25 07:34:40;;;;;;;1.55;0.57;;;28.20;54.00;;;;;;5051617;28;20162;-64
2022/05/25 07:37:12;;;;;;;1.45;0.65;;;28.60;53.10;;;;;;5051657;28;20189;-64
2022/05/25 07:39:49;;;;;;;1.48;0.80;;;28.00;53.10;;;;;;5051692;28;20182;-64
2022/05/25 07:42:17;;;;;;;3.80;0.95;;;27.70;53.10;;;;;;5051330;28;20173;-64
2022/05/25 07:44:46;;;;;;;0.77;0.65;;;27.40;53.50;;;;;;5051593;28;20181;-63
2022/05/25 07:47:13;;;;;;;2.25;0.73;;;27.30;54.90;;;;;;5055058;28;20371;-64
2022/05/25 07:49:38;;;;;;;0.75;0.63;;;27.30;54.10;;;;;;5055693;28;20192;-64
2022/05/25 07:52:04;;;;;;;2.08;0.85;;;27.60;53.60;;;;;;5055515;28;20173;-64
2022/05/25 07:54:31;;;;;;;2.10;0.98;;;27.30;53.70;;;;;;5055498;28;20173;-64
2022/05/25 07:56:56;;;;;;;1.17;0.82;;;27.20;54.10;;;;;;5055284;28;20656;-64
2022/05/25 07:59:22;;;;;;;1.35;0.90;;;27.50;53.90;;;;;;5053937;28;20182;-64
2022/05/25 08:07:28;;;;;;;1.48;0.80;;;29.10;51.40;;;;;;5055639;28;20532;-64
2022/05/25 08:10:00;;;;;;;1.67;1.00;;;28.80;51.20;;;;;;5055166;28;20174;-64
2022/05/25 08:12:25;;;;;;;1.88;1.05;;;29.00;51.70;;;;;;5055075;28;20177;-65
2022/05/25 08:14:51;;;;;;;2.50;0.93;;;28.50;51.10;;;;;;5055105;28;20191;-64
2022/05/25 08:17:16;;;;;;;2.25;1.13;;;28.00;51.30;;;;;;5054677;28;20229;-64
2022/05/25 08:19:42;;;;;;;3.25;0.63;;;27.20;53.10;;;;;;5055135;28;20189;-64
2022/05/25 08:22:09;;;;;;;1.27;0.90;;;26.90;54.90;;;;;;5042366;28;20228;-62
2022/05/25 08:24:35;;;;;;;3.08;1.20;;;27.30;53.90;;;;;;5034946;28;20241;-61
2022/05/25 08:27:00;;;;;;;1.88;1.10;;;27.70;52.90;;;;;;5041769;28;20235;-61
2022/05/25 08:29:26;;;;;;;1.27;0.65;;;27.70;51.90;;;;;;5054946;28;20180;-62
2022/05/25 08:31:55;;;;;;;1.30;1.15;;;27.50;51.90;;;;;;5054832;28;20185;-62
2022/05/25 08:34:22;;;;;;;1.40;0.65;;;27.40;52.80;;;;;;5054663;28;20188;-62
2022/05/25 08:36:48;;;;;;;2.65;0.90;;;27.60;53.60;;;;;;5053826;28;20182;-62
2022/05/25 08:39:14;;;;;;;1.67;0.80;;;27.60;53.30;;;;;;5054450;28;20193;-62
2022/05/25 08:41:42;;;;;;;2.65;0.98;;;27.10;51.10;;;;;;5054668;28;20253;-61
2022/05/25 08:44:10;;;;;;;2.92;0.77;;;26.40;52.00;;;;;;5044158;28;20222;-61
2022/05/25 08:46:36;;;;;;;0.80;0.80;;;25.80;52.50;;;;;;5034560;28;20182;-64
2022/05/25 08:49:06;;;;;;;0.60;0.60;;;25.20;55.00;;;;;;5034600;28;20263;-64
2022/05/25 08:51:32;;;;;;;1.00;0.73;;;25.10;55.50;;;;;;5034653;28;20364;-64
2022/05/25 08:54:00;;;;;;;1.42;0.80;;;25.40;55.20;;;;;;5034563;28;20182;-64
2022/05/25 08:56:49;;;;;;;0.60;0.60;;;24.90;54.40;;;;;;5034601;28;20261;-64
2022/05/25 08:59:30;;;;;;;0.85;0.60;;;25.20;54.40;;;;;;5034089;28;20182;-64
2022/05/25 09:02:01;;;;;;;2.88;0.80;;;25.20;55.10;;;;;;5049634;28;20182;-63
2022/05/25 09:04:40;;;;;;;1.50;0.80;;;25.30;55.10;;;;;;5034389;28;20267;-64
2022/05/25 09:07:17;;;;;;;1.48;0.60;;;25.40;55.10;;;;;;5034260;28;20188;-64
2022/05/25 09:09:49;;;;;;;1.65;0.75;;;25.70;54.00;;;;;;5034342;28;20181;-63
2022/05/25 09:12:18;;;;;;;1.10;0.80;;;25.60;52.70;;;;;;5034083;28;20209;-64
2022/05/25 09:14:49;;;;;;;1.60;1.02;;;25.20;53.00;;;;;;5034236;28;20198;-63
2022/05/25 09:17:25;;;;;;;3.38;1.67;;;25.20;54.80;;;;;;5033803;28;20229;-64
2022/05/25 09:19:52;;;;;;;2.63;0.82;;;25.30;54.20;;;;;;5034073;28;20625;-64
2022/05/25 09:22:22;;;;;;;0.85;0.70;;;25.10;55.10;;;;;;5047751;28;20186;-64
2022/05/25 09:24:52;;;;;;;1.17;0.98;;;24.60;54.50;;;;;;5053959;28;20259;-64
2022/05/25 09:27:24;;;;;;;4.93;1.20;;;24.40;55.70;;;;;;5053737;28;20205;-64
2022/05/25 09:29:53;;;;;;;2.75;0.88;;;24.60;55.60;;;;;;5053907;28;20188;-64
2022/05/25 09:32:37;;;;;;;1.65;0.75;;;24.70;55.30;;;;;;5053711;28;20509;-64
2022/05/25 09:35:20;;;;;;;0.88;0.73;;;25.00;54.30;;;;;;5053675;28;20182;-64
2022/05/25 09:38:01;;;;;;;1.40;0.70;;;24.80;54.00;;;;;;5053648;28;20180;-64
2022/05/25 09:40:40;;;;;;;1.80;0.70;;;24.50;54.90;;;;;;5053648;28;20209;-64
2022/05/25 09:43:09;;;;;;;3.42;0.80;;;24.10;56.70;;;;;;5052286;28;20213;-64
2022/05/25 09:45:50;;;;;;;1.98;0.90;;;24.40;55.70;;;;;;5053436;28;20204;-64
2022/05/25 09:48:29;;;;;;;1.27;0.65;;;25.00;55.70;;;;;;5053385;28;20180;-63
2022/05/25 09:51:30;;;;;;;1.60;1.00;;;25.40;54.50;;;;;;5053232;28;20220;-62
2022/05/25 09:54:04;;;;;;;2.25;0.98;;;25.70;52.50;;;;;;5045787;28;20186;-63
2022/05/25 09:56:36;;;;;;;3.78;0.98;;;25.40;52.90;;;;;;5053288;28;20185;-64
2022/05/25 09:59:07;;;;;;;0.95;0.93;;;25.10;55.50;;;;;;5053234;28;20200;-63
2022/05/25 10:01:45;;;;;;;1.02;0.80;;;25.30;54.50;;;;;;5053033;28;20604;-64
2022/05/25 10:04:33;;;;;;;1.45;0.57;;;24.90;55.00;;;;;;5052986;28;20255;-64
2022/05/25 10:06:59;;;;;;;3.90;1.05;;;24.90;54.50;;;;;;5053183;28;20624;-63
2022/05/25 10:09:29;;;;;;;1.63;0.77;;;25.20;52.40;;;;;;5051959;28;20207;-64
2022/05/25 10:12:23;;;;;;;2.95;0.70;;;24.70;52.10;;;;;;5053162;28;20181;-64
2022/05/25 10:15:07;;;;;;;1.42;0.85;;;24.00;54.30;;;;;;5052957;28;20616;-64
2022/05/25 10:17:55;;;;;;;3.10;0.80;;;23.90;55.50;;;;;;5052575;28;20336;-64
2022/05/25 10:20:27;;;;;;;3.30;0.60;;;23.90;54.70;;;;;;5052912;28;20216;-64
2022/05/25 10:23:07;;;;;;;1.55;0.85;;;23.70;55.60;;;;;;5033751;28;20320;-64
2022/05/25 10:25:45;;;;;;;1.67;0.75;;;23.80;53.30;;;;;;5032712;28;20637;-64
2022/05/25 10:28:44;;;;;;;2.10;1.23;;;24.10;53.60;;;;;;5049193;28;20205;-63
2022/05/25 10:36:58;;;;;;;2.42;0.80;;;23.70;54.30;;;;;;5052749;28;20177;-64
2022/05/25 10:39:44;;;;;;;0.80;0.70;;;23.50;54.60;;;;;;5052711;28;20181;-64
2022/05/25 10:42:26;;;;;;;1.83;0.68;;;23.50;55.10;;;;;;5052493;28;20595;-63
2022/05/25 10:45:06;;;;;;;1.10;0.60;;;24.10;55.70;;;;;;5052557;28;20189;-63
2022/05/25 10:47:50;;;;;;;2.67;0.77;;;24.60;55.90;;;;;;5052310;28;20512;-64
2022/05/25 10:50:35;;;;;;;3.60;0.70;;;24.80;53.90;;;;;;5052132;28;20182;-64
2022/05/25 10:53:24;;;;;;;0.73;0.50;;;24.50;52.50;;;;;;5052353;28;20509;-63
2022/05/25 10:56:29;;;;;;;1.67;0.60;;;24.40;52.40;;;;;;5052226;28;20633;-64
2022/05/25 10:59:03;;;;;;;2.08;0.52;;;24.30;52.10;;;;;;5052073;28;20572;-64
2022/05/25 11:01:35;;;;;;;1.10;0.60;;;24.30;52.50;;;;;;5052258;28;20529;-64
2022/05/25 11:04:26;;;;;;;3.53;0.60;;;24.30;53.70;;;;;;5052174;28;20394;-64
2022/05/25 11:07:06;;;;;;;0.75;0.55;;;24.70;52.90;;;;;;5052121;28;20559;-64
2022/05/25 11:10:02;;;;;;;1.80;0.95;;;25.10;53.10;;;;;;5052020;28;20173;-65
2022/05/25 11:12:31;;;;;;;3.03;0.80;;;25.30;52.40;;;;;;5052106;28;20628;-64
2022/05/25 11:15:34;;;;;;;1.63;0.75;;;25.20;52.10;;;;;;5051897;28;20272;-65
2022/05/25 11:18:05;;;;;;;0.82;0.60;;;25.00;51.90;;;;;;5051744;28;20275;-64
2022/05/25 11:21:04;;;;;;;2.60;0.93;;;24.90;52.20;;;;;;5051624;28;20174;-64
2022/05/25 11:23:55;;;;;;;0.85;0.60;;;24.50;52.90;;;;;;5031995;28;20221;-63
2022/05/25 11:26:41;;;;;;;0.75;0.68;;;24.80;53.80;;;;;;5033278;28;20181;-62
2022/05/25 11:29:37;;;;;;;1.23;0.77;;;25.30;54.00;;;;;;5051753;28;20551;-63
2022/05/25 11:32:10;;;;;;;1.20;0.70;;;25.60;53.90;;;;;;5051795;28;20200;-62
2022/05/25 11:34:58;;;;;;;3.63;0.77;;;25.60;52.40;;;;;;5051773;28;20177;-62
2022/05/25 11:37:42;;;;;;;1.73;1.20;;;25.40;51.50;;;;;;5051772;28;20268;-62
2022/05/25 11:40:32;;;;;;;1.20;0.57;;;25.00;52.90;;;;;;5051665;28;20227;-62
2022/05/25 11:43:10;;;;;;;0.75;0.65;;;25.20;53.50;;;;;;5051494;28;20563;-62
2022/05/25 11:46:11;;;;;;;2.40;0.70;;;25.30;54.10;;;;;;5051697;28;20176;-62
2022/05/25 11:49:23;;;;;;;1.88;0.70;;;25.70;53.60;;;;;;5051610;28;20220;-62
2022/05/25 11:52:08;;;;;;;0.93;0.70;;;25.60;52.30;;;;;;5051696;28;20180;-62
2022/05/25 11:54:48;;;;;;;0.88;0.70;;;25.40;51.30;;;;;;5051593;28;20178;-63
2022/05/25 11:57:34;;;;;;;1.23;0.60;;;25.20;52.30;;;;;;5051512;28;20180;-63
2022/05/25 12:00:12;;;;;;;1.63;0.60;;;25.10;52.10;;;;;;5051638;28;20188;-62
2022/05/25 12:02:49;;;;;;;1.73;0.43;;;25.30;49.70;;;;;;5051537;28;20184;-63
2022/05/25 12:05:44;;;;;;;2.33;0.90;;;25.30;48.90;;;;;;5051325;28;20252;-62
2022/05/25 12:08:37;;;;;;;0.98;0.50;;;25.10;49.30;;;;;;5051436;28;20632;-62
2022/05/25 12:11:17;;;;;;;1.98;0.60;;;25.00;52.00;;;;;;5051360;28;20165;-62
2022/05/25 12:14:13;;;;;;;0.60;0.60;;;24.90;51.90;;;;;;5051403;28;20185;-62
2022/05/25 12:16:41;;;;;;;2.55;0.68;;;24.60;50.50;;;;;;5051154;28;20204;-62
2022/05/25 12:19:19;;;;;;;0.65;0.60;;;24.60;50.70;;;;;;5051312;28;20648;-62
2022/05/25 12:21:56;;;;;;;3.17;1.00;;;24.40;51.50;;;;;;5041751;28;20205;-63
2022/05/25 12:24:29;;;;;;;0.40;0.40;;;24.40;51.40;;;;;;5031376;28;20213;-63
2022/05/25 12:26:56;;;;;;;2.65;1.00;;;24.60;50.90;;;;;;5037392;28;20720;-62
2022/05/25 12:29:24;;;;;;;1.38;0.60;;;24.70;51.30;;;;;;5051254;28;20268;-63
2022/05/25 12:31:53;;;;;;;1.45;0.57;;;25.00;51.90;;;;;;5051297;28;20166;-63
2022/05/25 12:34:50;;;;;;;1.83;0.70;;;24.80;51.80;;;;;;5054665;28;20182;-63
2022/05/25 12:37:29;;;;;;;1.17;0.55;;;24.90;51.80;;;;;;5052901;28;20594;-62
2022/05/25 12:39:58;;;;;;;1.80;0.50;;;24.90;51.20;;;;;;5054483;28;20187;-63
2022/05/25 12:42:24;;;;;;;1.02;0.50;;;25.00;50.70;;;;;;5054725;28;20205;-63
2022/05/25 12:51:03;;;;;;;0.55;0.52;;;24.60;50.10;;;;;;5056037;28;20542;-62
2022/05/25 12:53:39;;;;;;;0.57;0.52;;;24.30;50.70;;;;;;5054726;28;20196;-62
2022/05/25 12:56:07;;;;;;;0.40;0.40;;;24.40;50.70;;;;;;5054455;28;20176;-62
2022/05/25 12:58:49;;;;;;;1.83;0.50;;;24.50;51.00;;;;;;5054319;28;20192;-63
2022/05/25 13:01:14;;;;;;;1.30;0.43;;;24.70;50.20;;;;;;5054169;28;20771;-62
2022/05/25 13:03:46;;;;;;;0.77;0.55;;;24.70;51.00;;;;;;5054402;28;20247;-62
2022/05/25 13:06:12;;;;;;;1.05;0.25;;;24.90;51.10;;;;;;5054284;28;20190;-62
2022/05/25 13:08:47;;;;;;;1.83;0.43;;;24.90;50.10;;;;;;5054322;28;20268;-62
2022/05/25 13:11:31;;;;;;;2.00;0.60;;;25.10;49.60;;;;;;5054000;28;20227;-62
2022/05/25 13:13:59;;;;;;;1.92;0.88;;;24.90;48.80;;;;;;5054027;28;20264;-62
2022/05/25 13:16:40;;;;;;;0.73;0.30;;;24.80;49.20;;;;;;5054000;28;20529;-62
2022/05/25 13:19:33;;;;;;;0.88;0.40;;;24.80;50.00;;;;;;5054021;28;20185;-62
2022/05/25 13:22:11;;;;;;;0.75;0.50;;;25.00;48.70;;;;;;5042564;28;20178;-63
2022/05/25 13:24:55;;;;;;;0.35;0.30;;;25.10;49.50;;;;;;5033847;28;20696;-63
2022/05/25 13:27:58;;;;;;;1.33;0.40;;;25.10;49.00;;;;;;5043622;28;20185;-63
2022/05/25 13:30:38;;;;;;;0.43;0.30;;;25.10;49.30;;;;;;5053864;28;20585;-63
2022/05/25 13:33:29;;;;;;;1.10;0.57;;;24.70;49.20;;;;;;5053798;28;20169;-62
2022/05/25 13:36:07;;;;;;;0.55;0.55;;;24.30;48.90;;;;;;5048515;28;20666;-62
2022/05/25 13:38:49;;;;;;;0.63;0.50;;;24.00;49.00;;;;;;5053708;28;20239;-63
2022/05/25 13:41:24;;;;;;;0.70;0.50;;;23.90;49.70;;;;;;5053609;28;20181;-63